sensor_id;sensor_type;location;lat;lon;timestamp;P1;durP1;ratioP1;P2;durP2;ratioP2
41365;SDS011;27108;44.776;20.476;2022-09-17T00:00:08;8.95;;;6.32;;
41365;SDS011;27108;44.776;20.476;2022-09-17T00:02:39;9.85;;;6.50;;
41365;SDS011;27108;44.776;20.476;2022-09-17T00:05:10;10.75;;;5.93;;
41365;SDS011;27108;44.776;20.476;2022-09-17T00:07:41;9.30;;;6.20;;
41365;SDS011;27108;44.776;20.476;2022-09-17T00:10:11;8.50;;;6.20;;
41365;SDS011;27108;44.776;20.476;2022-09-17T00:12:40;12.50;;;6.65;;
41365;SDS011;27108;44.776;20.476;2022-09-17T00:15:10;10.10;;;6.75;;
41365;SDS011;27108;44.776;20.476;2022-09-17T00:17:40;9.52;;;6.45;;
41365;SDS011;27108;44.776;20.476;2022-09-17T00:20:09;11.73;;;7.10;;
41365;SDS011;27108;44.776;20.476;2022-09-17T00:22:39;11.25;;;6.75;;
41365;SDS011;27108;44.776;20.476;2022-09-17T00:25:10;11.98;;;7.20;;
41365;SDS011;27108;44.776;20.476;2022-09-17T00:27:42;10.52;;;6.60;;
41365;SDS011;27108;44.776;20.476;2022-09-17T00:30:11;9.88;;;7.03;;
41365;SDS011;27108;44.776;20.476;2022-09-17T00:32:41;9.93;;;6.88;;
41365;SDS011;27108;44.776;20.476;2022-09-17T00:35:10;10.15;;;7.40;;
41365;SDS011;27108;44.776;20.476;2022-09-17T00:37:45;12.02;;;6.55;;
41365;SDS011;27108;44.776;20.476;2022-09-17T00:40:14;11.15;;;7.68;;
41365;SDS011;27108;44.776;20.476;2022-09-17T00:42:46;16.02;;;8.43;;
41365;SDS011;27108;44.776;20.476;2022-09-17T00:45:18;17.55;;;8.25;;
41365;SDS011;27108;44.776;20.476;2022-09-17T00:50:28;10.00;;;6.60;;
41365;SDS011;27108;44.776;20.476;2022-09-17T00:56:02;10.50;;;7.05;;
41365;SDS011;27108;44.776;20.476;2022-09-17T00:58:34;9.88;;;7.25;;
41365;SDS011;27108;44.776;20.476;2022-09-17T01:04:14;12.68;;;7.40;;
41365;SDS011;27108;44.776;20.476;2022-09-17T01:06:45;10.18;;;6.78;;
41365;SDS011;27108;44.776;20.476;2022-09-17T01:09:24;14.23;;;7.53;;
41365;SDS011;27108;44.776;20.476;2022-09-17T01:12:11;14.53;;;7.90;;
41365;SDS011;27108;44.776;20.476;2022-09-17T01:15:03;10.77;;;6.50;;
41365;SDS011;27108;44.776;20.476;2022-09-17T01:17:52;10.70;;;6.75;;
41365;SDS011;27108;44.776;20.476;2022-09-17T01:23:50;8.18;;;5.95;;
41365;SDS011;27108;44.776;20.476;2022-09-17T01:26:42;7.10;;;4.85;;
41365;SDS011;27108;44.776;20.476;2022-09-17T01:29:34;8.05;;;5.50;;
41365;SDS011;27108;44.776;20.476;2022-09-17T01:32:45;6.10;;;4.03;;
41365;SDS011;27108;44.776;20.476;2022-09-17T01:35:24;6.22;;;3.92;;
41365;SDS011;27108;44.776;20.476;2022-09-17T01:38:04;7.03;;;3.92;;
41365;SDS011;27108;44.776;20.476;2022-09-17T01:40:42;9.82;;;4.75;;
41365;SDS011;27108;44.776;20.476;2022-09-17T01:43:18;7.13;;;4.35;;
41365;SDS011;27108;44.776;20.476;2022-09-17T01:45:55;7.78;;;4.57;;
41365;SDS011;27108;44.776;20.476;2022-09-17T01:48:30;9.30;;;4.47;;
41365;SDS011;27108;44.776;20.476;2022-09-17T01:51:06;6.50;;;4.32;;
41365;SDS011;27108;44.776;20.476;2022-09-17T01:53:42;7.65;;;3.83;;
41365;SDS011;27108;44.776;20.476;2022-09-17T01:56:19;4.03;;;2.70;;
41365;SDS011;27108;44.776;20.476;2022-09-17T01:58:56;2.92;;;1.60;;
41365;SDS011;27108;44.776;20.476;2022-09-17T02:01:29;3.80;;;1.75;;
41365;SDS011;27108;44.776;20.476;2022-09-17T02:06:58;3.17;;;1.60;;
41365;SDS011;27108;44.776;20.476;2022-09-17T02:09:39;5.18;;;1.83;;
41365;SDS011;27108;44.776;20.476;2022-09-17T02:12:17;3.42;;;1.50;;
41365;SDS011;27108;44.776;20.476;2022-09-17T02:14:57;2.55;;;1.50;;
41365;SDS011;27108;44.776;20.476;2022-09-17T02:17:31;4.57;;;1.25;;
41365;SDS011;27108;44.776;20.476;2022-09-17T02:20:09;4.00;;;1.67;;
41365;SDS011;27108;44.776;20.476;2022-09-17T02:22:40;3.80;;;1.65;;
41365;SDS011;27108;44.776;20.476;2022-09-17T02:25:13;3.10;;;1.55;;
41365;SDS011;27108;44.776;20.476;2022-09-17T02:27:48;2.05;;;1.40;;
41365;SDS011;27108;44.776;20.476;2022-09-17T02:30:29;3.95;;;1.77;;
41365;SDS011;27108;44.776;20.476;2022-09-17T02:32:59;3.30;;;1.70;;
41365;SDS011;27108;44.776;20.476;2022-09-17T02:35:32;2.15;;;1.38;;
41365;SDS011;27108;44.776;20.476;2022-09-17T02:38:04;4.78;;;1.50;;
41365;SDS011;27108;44.776;20.476;2022-09-17T02:40:53;3.63;;;1.92;;
41365;SDS011;27108;44.776;20.476;2022-09-17T02:43:33;2.80;;;1.70;;
41365;SDS011;27108;44.776;20.476;2022-09-17T02:46:13;2.90;;;1.75;;
41365;SDS011;27108;44.776;20.476;2022-09-17T02:49:00;3.28;;;1.55;;
41365;SDS011;27108;44.776;20.476;2022-09-17T02:51:46;3.55;;;1.83;;
41365;SDS011;27108;44.776;20.476;2022-09-17T02:57:01;3.55;;;1.88;;
41365;SDS011;27108;44.776;20.476;2022-09-17T02:59:45;2.80;;;1.85;;
41365;SDS011;27108;44.776;20.476;2022-09-17T03:02:22;3.45;;;1.95;;
41365;SDS011;27108;44.776;20.476;2022-09-17T03:04:56;4.22;;;1.80;;
41365;SDS011;27108;44.776;20.476;2022-09-17T03:07:28;3.75;;;1.80;;
41365;SDS011;27108;44.776;20.476;2022-09-17T03:12:27;2.50;;;1.42;;
41365;SDS011;27108;44.776;20.476;2022-09-17T03:14:56;3.42;;;1.80;;
41365;SDS011;27108;44.776;20.476;2022-09-17T03:17:25;2.58;;;1.65;;
41365;SDS011;27108;44.776;20.476;2022-09-17T03:19:55;3.75;;;1.90;;
41365;SDS011;27108;44.776;20.476;2022-09-17T03:22:24;2.97;;;1.73;;
41365;SDS011;27108;44.776;20.476;2022-09-17T03:24:54;2.28;;;1.58;;
41365;SDS011;27108;44.776;20.476;2022-09-17T03:27:23;3.33;;;1.75;;
41365;SDS011;27108;44.776;20.476;2022-09-17T03:29:52;4.25;;;2.20;;
41365;SDS011;27108;44.776;20.476;2022-09-17T03:32:23;3.30;;;1.77;;
41365;SDS011;27108;44.776;20.476;2022-09-17T03:34:51;3.28;;;1.90;;
41365;SDS011;27108;44.776;20.476;2022-09-17T03:37:27;2.38;;;1.60;;
41365;SDS011;27108;44.776;20.476;2022-09-17T03:40:03;3.75;;;2.10;;
41365;SDS011;27108;44.776;20.476;2022-09-17T03:42:36;3.60;;;2.00;;
41365;SDS011;27108;44.776;20.476;2022-09-17T03:45:05;4.00;;;2.28;;
41365;SDS011;27108;44.776;20.476;2022-09-17T03:47:35;2.50;;;1.45;;
41365;SDS011;27108;44.776;20.476;2022-09-17T03:50:05;3.38;;;2.05;;
41365;SDS011;27108;44.776;20.476;2022-09-17T03:52:39;6.15;;;2.03;;
41365;SDS011;27108;44.776;20.476;2022-09-17T03:55:14;3.58;;;2.03;;
41365;SDS011;27108;44.776;20.476;2022-09-17T03:57:46;3.35;;;2.10;;
41365;SDS011;27108;44.776;20.476;2022-09-17T04:00:16;3.17;;;1.90;;
41365;SDS011;27108;44.776;20.476;2022-09-17T04:02:48;5.13;;;2.20;;
41365;SDS011;27108;44.776;20.476;2022-09-17T04:05:18;2.20;;;1.58;;
41365;SDS011;27108;44.776;20.476;2022-09-17T04:07:50;3.13;;;1.92;;
41365;SDS011;27108;44.776;20.476;2022-09-17T04:10:20;3.38;;;1.88;;
41365;SDS011;27108;44.776;20.476;2022-09-17T04:12:49;3.45;;;2.05;;
41365;SDS011;27108;44.776;20.476;2022-09-17T04:15:19;4.45;;;2.40;;
41365;SDS011;27108;44.776;20.476;2022-09-17T04:17:51;5.65;;;2.22;;
41365;SDS011;27108;44.776;20.476;2022-09-17T04:20:26;2.75;;;1.67;;
41365;SDS011;27108;44.776;20.476;2022-09-17T04:22:55;4.90;;;2.40;;
41365;SDS011;27108;44.776;20.476;2022-09-17T04:25:25;3.20;;;2.30;;
41365;SDS011;27108;44.776;20.476;2022-09-17T04:27:53;3.10;;;1.77;;
41365;SDS011;27108;44.776;20.476;2022-09-17T04:30:25;3.55;;;1.92;;
41365;SDS011;27108;44.776;20.476;2022-09-17T04:32:54;3.90;;;2.35;;
41365;SDS011;27108;44.776;20.476;2022-09-17T04:35:23;3.42;;;2.28;;
41365;SDS011;27108;44.776;20.476;2022-09-17T04:37:52;3.58;;;2.67;;
41365;SDS011;27108;44.776;20.476;2022-09-17T04:40:26;4.90;;;2.85;;
41365;SDS011;27108;44.776;20.476;2022-09-17T04:42:56;4.10;;;2.30;;
41365;SDS011;27108;44.776;20.476;2022-09-17T04:45:30;4.18;;;2.40;;
41365;SDS011;27108;44.776;20.476;2022-09-17T04:47:59;3.90;;;2.42;;
41365;SDS011;27108;44.776;20.476;2022-09-17T04:50:32;4.80;;;2.47;;
41365;SDS011;27108;44.776;20.476;2022-09-17T04:53:05;5.63;;;3.00;;
41365;SDS011;27108;44.776;20.476;2022-09-17T04:55:37;4.35;;;2.88;;
41365;SDS011;27108;44.776;20.476;2022-09-17T05:00:39;5.22;;;2.58;;
41365;SDS011;27108;44.776;20.476;2022-09-17T05:03:14;4.40;;;2.92;;
41365;SDS011;27108;44.776;20.476;2022-09-17T05:05:43;4.00;;;2.90;;
41365;SDS011;27108;44.776;20.476;2022-09-17T05:08:12;6.85;;;2.80;;
41365;SDS011;27108;44.776;20.476;2022-09-17T05:10:43;5.72;;;3.40;;
41365;SDS011;27108;44.776;20.476;2022-09-17T05:13:14;3.78;;;2.95;;
41365;SDS011;27108;44.776;20.476;2022-09-17T05:18:37;6.05;;;3.53;;
41365;SDS011;27108;44.776;20.476;2022-09-17T05:21:12;5.05;;;2.78;;
41365;SDS011;27108;44.776;20.476;2022-09-17T05:26:42;5.07;;;3.42;;
41365;SDS011;27108;44.776;20.476;2022-09-17T05:29:13;5.43;;;3.42;;
41365;SDS011;27108;44.776;20.476;2022-09-17T05:35:05;6.85;;;3.40;;
41365;SDS011;27108;44.776;20.476;2022-09-17T05:40:35;6.78;;;3.80;;
41365;SDS011;27108;44.776;20.476;2022-09-17T05:43:11;5.18;;;3.72;;
41365;SDS011;27108;44.776;20.476;2022-09-17T05:48:35;7.53;;;4.20;;
41365;SDS011;27108;44.776;20.476;2022-09-17T05:51:04;6.28;;;2.97;;
41365;SDS011;27108;44.776;20.476;2022-09-17T05:56:28;8.25;;;4.45;;
41365;SDS011;27108;44.776;20.476;2022-09-17T05:59:00;5.35;;;3.63;;
41365;SDS011;27108;44.776;20.476;2022-09-17T06:01:29;7.90;;;4.32;;
41365;SDS011;27108;44.776;20.476;2022-09-17T06:04:07;6.88;;;4.60;;
41365;SDS011;27108;44.776;20.476;2022-09-17T06:06:37;7.40;;;4.30;;
41365;SDS011;27108;44.776;20.476;2022-09-17T06:09:12;6.25;;;4.20;;
41365;SDS011;27108;44.776;20.476;2022-09-17T06:11:47;7.22;;;4.60;;
41365;SDS011;27108;44.776;20.476;2022-09-17T06:14:24;7.50;;;4.57;;
41365;SDS011;27108;44.776;20.476;2022-09-17T06:19:53;7.30;;;4.13;;
41365;SDS011;27108;44.776;20.476;2022-09-17T06:22:28;6.43;;;4.05;;
41365;SDS011;27108;44.776;20.476;2022-09-17T06:25:00;8.63;;;4.57;;
41365;SDS011;27108;44.776;20.476;2022-09-17T06:27:35;6.70;;;3.92;;
41365;SDS011;27108;44.776;20.476;2022-09-17T06:33:05;7.53;;;4.85;;
41365;SDS011;27108;44.776;20.476;2022-09-17T06:35:37;8.88;;;4.55;;
41365;SDS011;27108;44.776;20.476;2022-09-17T06:38:12;11.43;;;4.75;;
41365;SDS011;27108;44.776;20.476;2022-09-17T06:40:49;7.40;;;4.65;;
41365;SDS011;27108;44.776;20.476;2022-09-17T06:43:24;7.85;;;5.25;;
41365;SDS011;27108;44.776;20.476;2022-09-17T06:45:58;8.15;;;4.65;;
41365;SDS011;27108;44.776;20.476;2022-09-17T06:48:33;6.32;;;3.70;;
41365;SDS011;27108;44.776;20.476;2022-09-17T06:51:09;8.85;;;4.78;;
41365;SDS011;27108;44.776;20.476;2022-09-17T06:53:42;7.32;;;5.05;;
41365;SDS011;27108;44.776;20.476;2022-09-17T06:56:12;6.95;;;4.60;;
41365;SDS011;27108;44.776;20.476;2022-09-17T06:58:44;9.15;;;5.05;;
41365;SDS011;27108;44.776;20.476;2022-09-17T07:01:17;8.80;;;4.88;;
41365;SDS011;27108;44.776;20.476;2022-09-17T07:03:49;7.00;;;4.60;;
41365;SDS011;27108;44.776;20.476;2022-09-17T07:09:18;8.48;;;4.68;;
41365;SDS011;27108;44.776;20.476;2022-09-17T07:11:46;8.88;;;5.15;;
41365;SDS011;27108;44.776;20.476;2022-09-17T07:14:15;8.43;;;4.40;;
41365;SDS011;27108;44.776;20.476;2022-09-17T07:16:50;9.37;;;4.83;;
41365;SDS011;27108;44.776;20.476;2022-09-17T07:19:19;8.57;;;3.88;;
41365;SDS011;27108;44.776;20.476;2022-09-17T07:21:55;8.43;;;5.13;;
41365;SDS011;27108;44.776;20.476;2022-09-17T07:24:24;7.88;;;5.15;;
41365;SDS011;27108;44.776;20.476;2022-09-17T07:26:59;7.35;;;4.80;;
41365;SDS011;27108;44.776;20.476;2022-09-17T07:29:49;7.05;;;4.93;;
41365;SDS011;27108;44.776;20.476;2022-09-17T07:32:22;7.63;;;4.20;;
41365;SDS011;27108;44.776;20.476;2022-09-17T07:34:54;7.63;;;5.05;;
41365;SDS011;27108;44.776;20.476;2022-09-17T07:37:23;8.18;;;5.00;;
41365;SDS011;27108;44.776;20.476;2022-09-17T07:39:58;7.53;;;4.88;;
41365;SDS011;27108;44.776;20.476;2022-09-17T07:42:27;7.88;;;4.53;;
41365;SDS011;27108;44.776;20.476;2022-09-17T07:45:03;6.43;;;4.38;;
41365;SDS011;27108;44.776;20.476;2022-09-17T07:47:40;8.35;;;4.65;;
41365;SDS011;27108;44.776;20.476;2022-09-17T07:50:15;7.30;;;4.90;;
41365;SDS011;27108;44.776;20.476;2022-09-17T07:52:47;6.60;;;4.80;;
41365;SDS011;27108;44.776;20.476;2022-09-17T07:55:22;7.72;;;4.30;;
41365;SDS011;27108;44.776;20.476;2022-09-17T07:57:54;6.75;;;4.32;;
41365;SDS011;27108;44.776;20.476;2022-09-17T08:00:25;5.30;;;3.92;;
41365;SDS011;27108;44.776;20.476;2022-09-17T08:03:02;6.47;;;4.47;;
41365;SDS011;27108;44.776;20.476;2022-09-17T08:05:30;6.13;;;3.65;;
41365;SDS011;27108;44.776;20.476;2022-09-17T08:08:02;6.72;;;4.55;;
41365;SDS011;27108;44.776;20.476;2022-09-17T08:10:33;7.05;;;4.45;;
41365;SDS011;27108;44.776;20.476;2022-09-17T08:13:05;6.20;;;4.05;;
41365;SDS011;27108;44.776;20.476;2022-09-17T08:15:37;6.93;;;3.70;;
41365;SDS011;27108;44.776;20.476;2022-09-17T08:18:13;6.25;;;3.67;;
41365;SDS011;27108;44.776;20.476;2022-09-17T08:20:44;5.78;;;4.00;;
41365;SDS011;27108;44.776;20.476;2022-09-17T08:23:17;7.35;;;4.05;;
41365;SDS011;27108;44.776;20.476;2022-09-17T08:25:50;6.85;;;4.20;;
41365;SDS011;27108;44.776;20.476;2022-09-17T08:28:22;4.65;;;3.08;;
41365;SDS011;27108;44.776;20.476;2022-09-17T08:30:58;5.38;;;2.78;;
41365;SDS011;27108;44.776;20.476;2022-09-17T08:33:32;7.45;;;3.63;;
41365;SDS011;27108;44.776;20.476;2022-09-17T08:36:01;7.30;;;3.05;;
41365;SDS011;27108;44.776;20.476;2022-09-17T08:38:32;7.10;;;3.37;;
41365;SDS011;27108;44.776;20.476;2022-09-17T08:41:11;6.25;;;2.78;;
41365;SDS011;27108;44.776;20.476;2022-09-17T08:43:50;5.60;;;3.50;;
41365;SDS011;27108;44.776;20.476;2022-09-17T08:46:40;5.80;;;3.78;;
41365;SDS011;27108;44.776;20.476;2022-09-17T08:49:19;5.78;;;3.13;;
41365;SDS011;27108;44.776;20.476;2022-09-17T08:52:07;4.40;;;2.90;;
41365;SDS011;27108;44.776;20.476;2022-09-17T08:54:45;3.97;;;2.88;;
41365;SDS011;27108;44.776;20.476;2022-09-17T09:00:06;4.72;;;2.80;;
41365;SDS011;27108;44.776;20.476;2022-09-17T09:02:49;5.22;;;2.95;;
41365;SDS011;27108;44.776;20.476;2022-09-17T09:05:37;4.88;;;2.72;;
41365;SDS011;27108;44.776;20.476;2022-09-17T09:08:12;3.40;;;2.53;;
41365;SDS011;27108;44.776;20.476;2022-09-17T09:10:49;4.22;;;2.45;;
41365;SDS011;27108;44.776;20.476;2022-09-17T09:13:21;5.45;;;2.40;;
41365;SDS011;27108;44.776;20.476;2022-09-17T09:15:58;4.70;;;2.67;;
41365;SDS011;27108;44.776;20.476;2022-09-17T09:18:32;3.83;;;2.50;;
41365;SDS011;27108;44.776;20.476;2022-09-17T09:21:11;4.85;;;2.83;;
41365;SDS011;27108;44.776;20.476;2022-09-17T09:23:55;3.47;;;2.50;;
41365;SDS011;27108;44.776;20.476;2022-09-17T09:26:34;5.35;;;2.33;;
41365;SDS011;27108;44.776;20.476;2022-09-17T09:32:16;3.65;;;2.05;;
41365;SDS011;27108;44.776;20.476;2022-09-17T09:37:26;4.45;;;2.35;;
41365;SDS011;27108;44.776;20.476;2022-09-17T09:40:04;3.80;;;2.38;;
41365;SDS011;27108;44.776;20.476;2022-09-17T09:42:52;3.58;;;2.42;;
41365;SDS011;27108;44.776;20.476;2022-09-17T09:45:36;3.50;;;2.28;;
41365;SDS011;27108;44.776;20.476;2022-09-17T09:48:21;3.60;;;2.38;;
41365;SDS011;27108;44.776;20.476;2022-09-17T09:51:07;4.07;;;2.53;;
41365;SDS011;27108;44.776;20.476;2022-09-17T09:53:55;3.75;;;2.00;;
41365;SDS011;27108;44.776;20.476;2022-09-17T09:56:44;4.00;;;2.15;;
41365;SDS011;27108;44.776;20.476;2022-09-17T09:59:26;3.85;;;2.20;;
41365;SDS011;27108;44.776;20.476;2022-09-17T10:01:56;3.95;;;2.50;;
41365;SDS011;27108;44.776;20.476;2022-09-17T10:04:25;6.88;;;2.85;;
41365;SDS011;27108;44.776;20.476;2022-09-17T10:07:00;4.57;;;2.90;;
41365;SDS011;27108;44.776;20.476;2022-09-17T10:10:06;5.15;;;2.47;;
41365;SDS011;27108;44.776;20.476;2022-09-17T10:12:39;3.83;;;2.90;;
41365;SDS011;27108;44.776;20.476;2022-09-17T10:15:21;3.97;;;2.85;;
41365;SDS011;27108;44.776;20.476;2022-09-17T10:20:56;5.07;;;2.77;;
41365;SDS011;27108;44.776;20.476;2022-09-17T10:26:25;5.45;;;3.10;;
41365;SDS011;27108;44.776;20.476;2022-09-17T10:28:56;4.28;;;2.67;;
41365;SDS011;27108;44.776;20.476;2022-09-17T10:31:33;4.45;;;2.88;;
41365;SDS011;27108;44.776;20.476;2022-09-17T10:34:17;4.93;;;2.92;;
41365;SDS011;27108;44.776;20.476;2022-09-17T10:36:51;4.88;;;3.05;;
41365;SDS011;27108;44.776;20.476;2022-09-17T10:39:32;3.80;;;2.60;;
41365;SDS011;27108;44.776;20.476;2022-09-17T10:42:11;4.32;;;2.83;;
41365;SDS011;27108;44.776;20.476;2022-09-17T10:47:50;4.35;;;3.05;;
41365;SDS011;27108;44.776;20.476;2022-09-17T10:50:27;4.25;;;2.72;;
41365;SDS011;27108;44.776;20.476;2022-09-17T10:55:57;5.90;;;3.75;;
41365;SDS011;27108;44.776;20.476;2022-09-17T10:58:51;6.53;;;3.38;;
41365;SDS011;27108;44.776;20.476;2022-09-17T11:01:33;6.18;;;3.00;;
41365;SDS011;27108;44.776;20.476;2022-09-17T11:04:28;4.97;;;3.10;;
41365;SDS011;27108;44.776;20.476;2022-09-17T11:10:15;4.97;;;3.28;;
41365;SDS011;27108;44.776;20.476;2022-09-17T11:12:56;7.53;;;3.83;;
41365;SDS011;27108;44.776;20.476;2022-09-17T11:15:46;6.15;;;3.50;;
41365;SDS011;27108;44.776;20.476;2022-09-17T11:18:34;6.32;;;3.65;;
41365;SDS011;27108;44.776;20.476;2022-09-17T11:21:45;5.75;;;3.72;;
41365;SDS011;27108;44.776;20.476;2022-09-17T11:27:40;5.35;;;3.38;;
41365;SDS011;27108;44.776;20.476;2022-09-17T11:30:21;5.55;;;3.53;;
41365;SDS011;27108;44.776;20.476;2022-09-17T11:42:21;5.43;;;3.58;;
41365;SDS011;27108;44.776;20.476;2022-09-17T11:45:02;4.22;;;3.03;;
41365;SDS011;27108;44.776;20.476;2022-09-17T11:47:39;6.35;;;3.35;;
41365;SDS011;27108;44.776;20.476;2022-09-17T11:50:15;5.88;;;3.22;;
41365;SDS011;27108;44.776;20.476;2022-09-17T11:52:58;6.07;;;3.58;;
41365;SDS011;27108;44.776;20.476;2022-09-17T11:55:45;7.30;;;3.58;;
41365;SDS011;27108;44.776;20.476;2022-09-17T11:58:25;5.75;;;3.83;;
41365;SDS011;27108;44.776;20.476;2022-09-17T12:01:03;5.10;;;3.35;;
41365;SDS011;27108;44.776;20.476;2022-09-17T12:03:39;4.38;;;2.83;;
41365;SDS011;27108;44.776;20.476;2022-09-17T12:06:12;5.28;;;3.75;;
41365;SDS011;27108;44.776;20.476;2022-09-17T12:08:54;3.92;;;2.72;;
41365;SDS011;27108;44.776;20.476;2022-09-17T12:11:35;4.78;;;3.00;;
41365;SDS011;27108;44.776;20.476;2022-09-17T12:14:12;5.85;;;3.60;;
41365;SDS011;27108;44.776;20.476;2022-09-17T12:16:54;5.60;;;3.75;;
41365;SDS011;27108;44.776;20.476;2022-09-17T12:19:33;5.50;;;3.58;;
41365;SDS011;27108;44.776;20.476;2022-09-17T12:22:10;5.80;;;3.47;;
41365;SDS011;27108;44.776;20.476;2022-09-17T12:24:52;5.85;;;3.88;;
41365;SDS011;27108;44.776;20.476;2022-09-17T12:27:30;7.15;;;3.70;;
41365;SDS011;27108;44.776;20.476;2022-09-17T12:30:09;6.88;;;3.75;;
41365;SDS011;27108;44.776;20.476;2022-09-17T12:32:56;6.55;;;3.60;;
41365;SDS011;27108;44.776;20.476;2022-09-17T12:35:45;4.95;;;3.53;;
41365;SDS011;27108;44.776;20.476;2022-09-17T12:41:58;5.78;;;3.15;;
41365;SDS011;27108;44.776;20.476;2022-09-17T12:44:45;4.50;;;3.08;;
41365;SDS011;27108;44.776;20.476;2022-09-17T12:47:32;7.18;;;3.67;;
41365;SDS011;27108;44.776;20.476;2022-09-17T12:50:20;6.80;;;3.78;;
41365;SDS011;27108;44.776;20.476;2022-09-17T12:53:10;5.00;;;3.00;;
41365;SDS011;27108;44.776;20.476;2022-09-17T12:55:56;7.85;;;3.53;;
41365;SDS011;27108;44.776;20.476;2022-09-17T12:58:45;3.85;;;2.80;;
41365;SDS011;27108;44.776;20.476;2022-09-17T13:01:38;5.53;;;2.92;;
41365;SDS011;27108;44.776;20.476;2022-09-17T13:04:26;4.97;;;3.20;;
41365;SDS011;27108;44.776;20.476;2022-09-17T13:07:47;5.60;;;3.53;;
41365;SDS011;27108;44.776;20.476;2022-09-17T13:16:41;4.40;;;2.90;;
41365;SDS011;27108;44.776;20.476;2022-09-17T13:19:26;4.50;;;2.80;;
41365;SDS011;27108;44.776;20.476;2022-09-17T13:25:08;3.97;;;2.40;;
41365;SDS011;27108;44.776;20.476;2022-09-17T13:27:45;5.65;;;2.53;;
41365;SDS011;27108;44.776;20.476;2022-09-17T13:42:15;4.50;;;2.75;;
41365;SDS011;27108;44.776;20.476;2022-09-17T13:47:48;4.93;;;2.53;;
41365;SDS011;27108;44.776;20.476;2022-09-17T13:53:17;4.55;;;2.83;;
41365;SDS011;27108;44.776;20.476;2022-09-17T13:55:52;5.28;;;2.60;;
41365;SDS011;27108;44.776;20.476;2022-09-17T13:58:24;6.40;;;2.28;;
41365;SDS011;27108;44.776;20.476;2022-09-17T14:01:03;3.67;;;2.40;;
41365;SDS011;27108;44.776;20.476;2022-09-17T14:03:47;5.25;;;2.25;;
41365;SDS011;27108;44.776;20.476;2022-09-17T14:09:45;5.20;;;3.28;;
41365;SDS011;27108;44.776;20.476;2022-09-17T14:18:42;4.60;;;2.75;;
41365;SDS011;27108;44.776;20.476;2022-09-17T14:24:28;4.50;;;2.70;;
41365;SDS011;27108;44.776;20.476;2022-09-17T14:27:28;4.38;;;2.63;;
41365;SDS011;27108;44.776;20.476;2022-09-17T14:36:07;5.00;;;2.75;;
41365;SDS011;27108;44.776;20.476;2022-09-17T14:38:46;4.13;;;2.63;;
41365;SDS011;27108;44.776;20.476;2022-09-17T14:44:13;5.85;;;3.13;;
41365;SDS011;27108;44.776;20.476;2022-09-17T14:46:53;5.55;;;3.40;;
41365;SDS011;27108;44.776;20.476;2022-09-17T14:49:32;4.85;;;3.33;;
41365;SDS011;27108;44.776;20.476;2022-09-17T14:52:06;5.65;;;2.75;;
41365;SDS011;27108;44.776;20.476;2022-09-17T14:57:56;6.40;;;2.92;;
41365;SDS011;27108;44.776;20.476;2022-09-17T15:00:34;5.30;;;2.83;;
41365;SDS011;27108;44.776;20.476;2022-09-17T15:03:18;4.55;;;2.92;;
41365;SDS011;27108;44.776;20.476;2022-09-17T15:05:54;4.47;;;2.60;;
41365;SDS011;27108;44.776;20.476;2022-09-17T15:11:21;4.32;;;2.42;;
41365;SDS011;27108;44.776;20.476;2022-09-17T15:13:50;4.55;;;2.58;;
41365;SDS011;27108;44.776;20.476;2022-09-17T15:16:22;5.15;;;2.67;;
41365;SDS011;27108;44.776;20.476;2022-09-17T15:18:54;4.60;;;2.38;;
41365;SDS011;27108;44.776;20.476;2022-09-17T15:21:26;6.45;;;2.85;;
41365;SDS011;27108;44.776;20.476;2022-09-17T15:27:10;5.32;;;3.25;;
41365;SDS011;27108;44.776;20.476;2022-09-17T15:32:47;5.18;;;2.30;;
41365;SDS011;27108;44.776;20.476;2022-09-17T15:35:19;3.45;;;2.20;;
41365;SDS011;27108;44.776;20.476;2022-09-17T15:38:18;4.20;;;2.40;;
41365;SDS011;27108;44.776;20.476;2022-09-17T15:40:49;3.97;;;2.40;;
41365;SDS011;27108;44.776;20.476;2022-09-17T15:43:23;4.03;;;2.28;;
41365;SDS011;27108;44.776;20.476;2022-09-17T15:45:57;3.60;;;2.45;;
41365;SDS011;27108;44.776;20.476;2022-09-17T15:48:58;4.70;;;2.80;;
41365;SDS011;27108;44.776;20.476;2022-09-17T15:51:34;4.93;;;2.40;;
41365;SDS011;27108;44.776;20.476;2022-09-17T15:54:24;3.75;;;2.30;;
41365;SDS011;27108;44.776;20.476;2022-09-17T15:59:36;3.88;;;2.08;;
41365;SDS011;27108;44.776;20.476;2022-09-17T16:02:22;3.78;;;2.40;;
41365;SDS011;27108;44.776;20.476;2022-09-17T16:08:16;5.10;;;2.55;;
41365;SDS011;27108;44.776;20.476;2022-09-17T16:10:52;5.75;;;2.70;;
41365;SDS011;27108;44.776;20.476;2022-09-17T16:16:23;4.57;;;2.80;;
41365;SDS011;27108;44.776;20.476;2022-09-17T16:19:01;3.90;;;2.70;;
41365;SDS011;27108;44.776;20.476;2022-09-17T16:24:38;5.07;;;2.40;;
41365;SDS011;27108;44.776;20.476;2022-09-17T16:27:15;5.05;;;2.65;;
41365;SDS011;27108;44.776;20.476;2022-09-17T16:29:47;4.50;;;2.92;;
41365;SDS011;27108;44.776;20.476;2022-09-17T16:32:21;3.77;;;2.43;;
41365;SDS011;27108;44.776;20.476;2022-09-17T16:34:55;4.05;;;2.55;;
41365;SDS011;27108;44.776;20.476;2022-09-17T16:37:30;3.28;;;2.30;;
41365;SDS011;27108;44.776;20.476;2022-09-17T16:40:05;3.75;;;2.50;;
41365;SDS011;27108;44.776;20.476;2022-09-17T16:42:36;4.05;;;2.58;;
41365;SDS011;27108;44.776;20.476;2022-09-17T16:45:10;5.25;;;2.55;;
41365;SDS011;27108;44.776;20.476;2022-09-17T16:47:46;3.90;;;2.35;;
41365;SDS011;27108;44.776;20.476;2022-09-17T16:50:18;3.80;;;2.58;;
41365;SDS011;27108;44.776;20.476;2022-09-17T16:52:52;4.15;;;2.25;;
41365;SDS011;27108;44.776;20.476;2022-09-17T16:55:24;3.10;;;1.95;;
41365;SDS011;27108;44.776;20.476;2022-09-17T17:00:34;3.83;;;2.30;;
41365;SDS011;27108;44.776;20.476;2022-09-17T17:03:09;5.20;;;2.47;;
41365;SDS011;27108;44.776;20.476;2022-09-17T17:05:44;5.13;;;2.88;;
41365;SDS011;27108;44.776;20.476;2022-09-17T17:08:13;3.17;;;2.25;;
41365;SDS011;27108;44.776;20.476;2022-09-17T17:10:45;3.13;;;2.10;;
41365;SDS011;27108;44.776;20.476;2022-09-17T17:13:17;4.47;;;2.33;;
41365;SDS011;27108;44.776;20.476;2022-09-17T17:18:49;3.40;;;2.00;;
41365;SDS011;27108;44.776;20.476;2022-09-17T17:21:25;4.60;;;2.50;;
41365;SDS011;27108;44.776;20.476;2022-09-17T17:23:56;3.85;;;2.20;;
41365;SDS011;27108;44.776;20.476;2022-09-17T17:26:31;5.07;;;2.20;;
41365;SDS011;27108;44.776;20.476;2022-09-17T17:29:05;4.05;;;2.10;;
41365;SDS011;27108;44.776;20.476;2022-09-17T17:31:41;3.25;;;2.13;;
41365;SDS011;27108;44.776;20.476;2022-09-17T17:34:13;4.53;;;2.50;;
41365;SDS011;27108;44.776;20.476;2022-09-17T17:36:48;4.05;;;2.22;;
41365;SDS011;27108;44.776;20.476;2022-09-17T17:39:29;3.33;;;2.30;;
41365;SDS011;27108;44.776;20.476;2022-09-17T17:42:04;4.53;;;2.72;;
41365;SDS011;27108;44.776;20.476;2022-09-17T17:44:36;3.40;;;2.17;;
41365;SDS011;27108;44.776;20.476;2022-09-17T17:47:11;3.65;;;2.13;;
41365;SDS011;27108;44.776;20.476;2022-09-17T17:52:36;2.60;;;1.75;;
41365;SDS011;27108;44.776;20.476;2022-09-17T17:55:15;3.55;;;2.40;;
41365;SDS011;27108;44.776;20.476;2022-09-17T17:57:45;4.28;;;2.80;;
41365;SDS011;27108;44.776;20.476;2022-09-17T18:00:16;3.67;;;2.45;;
41365;SDS011;27108;44.776;20.476;2022-09-17T18:02:58;4.22;;;2.38;;
41365;SDS011;27108;44.776;20.476;2022-09-17T18:05:34;3.22;;;2.08;;
41365;SDS011;27108;44.776;20.476;2022-09-17T18:08:09;6.75;;;2.00;;
41365;SDS011;27108;44.776;20.476;2022-09-17T18:10:49;3.67;;;1.75;;
41365;SDS011;27108;44.776;20.476;2022-09-17T18:16:12;3.45;;;1.50;;
41365;SDS011;27108;44.776;20.476;2022-09-17T18:21:45;3.88;;;1.60;;